| time (UTC) | temp F | wind direction | speed MPH | gust MPH | rain 1hr in | rain 24hr in | rain mn in | humidity % | barometer mb |
| 20260507084730 | 47 | 101 | 8.0 | 9.0 | 0.00 | 0.00 | 0.00 | 57 | 1016.0 |
| 20260507082730 | 48 | 98 | 7.0 | 9.0 | 0.00 | 0.00 | 0.00 | 57 | 1016.0 |
| 20260507080730 | 46 | 109 | 14.0 | 15.0 | 0.00 | 0.00 | 0.00 | 55 | 1016.0 |
| 20260507074730 | 46 | 111 | 15.0 | 16.0 | 0.00 | 0.00 | 0.00 | 52 | 1016.0 |
| 20260507072730 | 46 | 97 | 14.0 | 15.0 | 0.00 | 0.00 | 0.00 | 56 | 1015.9 |
| 20260507070729 | 46 | 85 | 14.0 | 15.0 | 0.00 | 0.00 | 0.00 | 51 | 1016.0 |
| 20260507064730 | 46 | 81 | 14.0 | 16.0 | 0.00 | 0.00 | 0.00 | 52 | 1015.9 |
| 20260507062729 | 45 | 81 | 15.0 | 18.0 | 0.00 | 0.00 | 0.00 | 47 | 1015.8 |
| 20260507060729 | 45 | 78 | 13.0 | 15.0 | 0.00 | 0.00 | 0.00 | 49 | 1015.7 |
| 20260507054730 | 44 | 69 | 13.0 | 15.0 | 0.00 | 0.00 | 0.00 | 43 | 1015.6 |
| 20260507052729 | 43 | 59 | 11.0 | 15.0 | 0.00 | 0.00 | 0.00 | 47 | 1015.5 |
| 20260507050728 | 42 | 53 | 10.0 | 13.0 | 0.00 | 0.00 | 0.00 | 52 | 1015.5 |
| 20260507044730 | 42 | 51 | 10.0 | 15.0 | 0.00 | 0.00 | 0.00 | 51 | 1015.4 |
| 20260507042728 | 42 | 56 | 12.0 | 15.0 | 0.00 | 0.00 | 0.00 | 47 | 1015.4 |
| 20260507040730 | 41 | 52 | 11.0 | 15.0 | 0.00 | 0.00 | 0.00 | 50 | 1015.4 |
| 20260507034729 | 41 | 54 | 11.0 | 15.0 | 0.00 | 0.00 | 0.00 | 49 | 1015.3 |
| 20260507032730 | 41 | 56 | 13.0 | 17.0 | 0.00 | 0.00 | 0.00 | 43 | 1015.1 |
| 20260507030730 | 41 | 61 | 14.0 | 17.0 | 0.00 | 0.00 | 0.00 | 47 | 1015.1 |
| 20260507024729 | 40 | 61 | 14.0 | 17.0 | 0.00 | 0.00 | 0.00 | 48 | 1015.1 |
| 20260507022730 | 40 | 64 | 14.0 | 16.0 | 0.00 | 0.00 | 0.00 | 49 | 1015.0 |
| 20260507020729 | 41 | 59 | 15.0 | 17.0 | 0.00 | 0.00 | 0.00 | 48 | 1014.9 |
| 20260507014729 | 40 | 58 | 14.0 | 16.0 | 0.00 | 0.00 | 0.00 | 48 | 1015.0 |
| 20260507012729 | 41 | 61 | 15.0 | 18.0 | 0.00 | 0.00 | 0.00 | 46 | 1014.8 |
| 20260507004729 | 41 | 48 | 11.0 | 12.0 | 0.00 | 0.00 | 0.00 | 50 | 1014.7 |
| 20260507002729 | 41 | 54 | 14.0 | 19.0 | 0.00 | 0.00 | 0.00 | 45 | 1014.5 |
| 20260507000729 | 41 | 54 | 13.0 | 18.0 | 0.00 | 0.00 | 0.00 | 47 | 1014.5 |
| 20260506234729 | 41 | 48 | 13.0 | 16.0 | 0.00 | 0.00 | 0.00 | 50 | 1014.4 |
| 20260506232728 | 42 | 43 | 12.0 | 14.0 | 0.00 | 0.00 | 0.00 | 52 | 1014.4 |
| 20260506230730 | 42 | 41 | 11.0 | 13.0 | 0.00 | 0.00 | 0.00 | 52 | 1014.5 |
| 20260506224728 | 42 | 32 | 12.0 | 15.0 | 0.00 | 0.00 | 0.00 | 54 | 1014.6 |
| 20260506222729 | 42 | 23 | 14.0 | 15.0 | 0.00 | 0.00 | 0.00 | 53 | 1014.6 |
| 20260506220729 | 42 | 15 | 12.0 | 14.0 | 0.00 | 0.00 | 0.00 | 54 | 1014.5 |
| 20260506214728 | 42 | 8 | 13.0 | 15.0 | 0.00 | 0.00 | 0.00 | 53 | 1014.5 |
| 20260506212728 | 42 | 2 | 13.0 | 16.0 | 0.00 | 0.00 | 0.00 | 52 | 1014.4 |
| 20260506210728 | 42 | 356 | 13.0 | 15.0 | 0.00 | 0.00 | 0.00 | 60 | 1014.4 |
| 20260506204728 | 43 | 353 | 12.0 | 15.0 | 0.00 | 0.00 | 0.00 | 68 | 1014.4 |
| 20260506202728 | 43 | 339 | 11.0 | 13.0 | 0.00 | 0.00 | 0.00 | 66 | 1014.5 |
| 20260506200728 | 43 | 332 | 9.0 | 10.0 | 0.00 | 0.00 | 0.00 | 69 | 1014.6 |
| 20260506194728 | 43 | 324 | 7.0 | 9.0 | 0.00 | 0.00 | 0.00 | 69 | 1014.6 |
| 20260506192727 | 43 | 321 | 8.0 | 9.0 | 0.00 | 0.00 | 0.00 | 68 | 1014.6 |
| 20260506190727 | 44 | 316 | 9.0 | 11.0 | 0.00 | 0.00 | 0.00 | 63 | 1014.6 |
| 20260506184727 | 44 | 315 | 10.0 | 12.0 | 0.00 | 0.00 | 0.00 | 55 | 1014.5 |
| 20260506182728 | 45 | 312 | 12.0 | 15.0 | 0.00 | 0.00 | 0.00 | 53 | 1014.3 |
| 20260506174728 | 46 | 297 | 10.0 | 14.0 | 0.00 | 0.00 | 0.00 | 57 | 1014.4 |
| 20260506172726 | 47 | 293 | 9.0 | 13.0 | 0.00 | 0.00 | 0.00 | 56 | 1014.5 |
| 20260506164726 | 47 | 291 | 9.0 | 15.0 | 0.00 | 0.00 | 0.00 | 56 | 1014.5 |
| 20260506162727 | 47 | 290 | 9.0 | 15.0 | 0.00 | 0.00 | 0.00 | 62 | 1014.4 |
| 20260506160727 | 47 | 288 | 10.0 | 13.0 | 0.00 | 0.00 | 0.00 | 65 | 1014.4 |
| 20260506154727 | 46 | 292 | 10.0 | 15.0 | 0.00 | 0.00 | 0.00 | 65 | 1014.4 |
| 20260506152727 | 46 | 280 | 11.0 | 15.0 | 0.00 | 0.00 | 0.00 | 68 | 1014.6 |
| 20260506150726 | 46 | 278 | 13.0 | 16.0 | 0.00 | 0.00 | 0.00 | 64 | 1014.6 |
| 20260506144726 | 45 | 273 | 16.0 | 17.0 | 0.00 | 0.00 | 0.00 | 63 | 1014.8 |
| 20260506142726 | 45 | 267 | 16.0 | 19.0 | 0.00 | 0.00 | 0.00 | 62 | 1014.9 |
| 20260506140726 | 45 | 252 | 15.0 | 18.0 | 0.00 | 0.00 | 0.00 | 62 | 1014.9 |
| 20260506134727 | 46 | 252 | 15.0 | 18.0 | 0.00 | 0.00 | 0.00 | 66 | 1014.9 |
| 20260506132726 | 46 | 248 | 15.0 | 17.0 | 0.00 | 0.00 | 0.00 | 71 | 1015.0 |
| 20260506130726 | 47 | 245 | 17.0 | 19.0 | 0.00 | 0.00 | 0.00 | 68 | 1014.9 |
| 20260506124726 | 47 | 241 | 15.0 | 17.0 | 0.00 | 0.00 | 0.00 | 66 | 1014.9 |
| 20260506122726 | 46 | 244 | 16.0 | 18.0 | 0.00 | 0.00 | 0.00 | 72 | 1014.9 |
| 20260506120726 | 46 | 244 | 16.0 | 17.0 | 0.00 | 0.00 | 0.00 | 74 | 1015.0 |
| 20260506114726 | 46 | 242 | 16.0 | 17.0 | 0.00 | 0.00 | 0.00 | 75 | 1015.0 |
| 20260506112727 | 46 | 233 | 16.0 | 18.0 | 0.00 | 0.00 | 0.00 | 74 | 1015.0 |
| 20260506110726 | 47 | 227 | 16.0 | 18.0 | 0.00 | 0.00 | 0.00 | 72 | 1015.0 |
| 20260506104727 | 47 | 220 | 15.0 | 17.0 | 0.00 | 0.00 | 0.00 | 71 | 1015.0 |
| 20260506102728 | 47 | 218 | 13.0 | 14.0 | 0.00 | 0.00 | 0.00 | 72 | 1014.9 |
| 20260506100729 | 47 | 221 | 13.0 | 14.0 | 0.00 | 0.00 | 0.00 | 75 | 1014.8 |
| 20260506094729 | 47 | 223 | 11.0 | 13.0 | 0.00 | 0.00 | 0.00 | 76 | 1014.7 |
| 20260506092728 | 46 | 244 | 8.0 | 9.0 | 0.00 | 0.00 | 0.00 | 76 | 1014.4 |
| 20260506090728 | 46 | 255 | 8.0 | 9.0 | 0.00 | 0.00 | 0.00 | 75 | 1014.3 |